Time;durP1;ratioP1;P1;durP2;ratioP2;P2;SDS_P1;SDS_P2;PMS_P1;PMS_P2;Temp;Humidity;BMP_temperature;BMP_pressure;BME280_temperature;BME280_humidity;BME280_pressure;Samples;Min_cycle;Max_cycle;Signal;HPM_P1;HPM_P2
2024/01/21 00:01:23;;;;;;;11.03;7.33;;;;;;;;;;4874624;29;20552;-84
2024/01/21 00:04:27;;;;;;;10.83;7.20;;;;;;;;;;4864552;29;20548;-83
2024/01/21 00:07:31;;;;;;;9.67;6.80;;;;;;;;;;4864195;29;20544;-83
2024/01/21 00:10:35;;;;;;;12.87;7.17;;;;;;;;;;4852976;29;20560;-83
2024/01/21 00:13:40;;;;;;;10.47;7.27;;;;;;;;;;4864477;29;20548;-83
2024/01/21 00:16:44;;;;;;;9.70;6.57;;;;;;;;;;4874474;29;20659;-83
2024/01/21 00:19:48;;;;;;;10.47;6.53;;;;;;;;;;4853651;29;20548;-83
2024/01/21 00:22:52;;;;;;;13.33;7.13;;;;;;;;;;4874754;29;20552;-84
2024/01/21 00:25:56;;;;;;;11.73;6.70;;;;;;;;;;4852323;29;21203;-83
2024/01/21 00:29:03;;;;;;;9.83;6.37;;;;;;;;;;4865224;29;21093;-84
2024/01/21 00:32:07;;;;;;;12.00;6.93;;;;;;;;;;4874637;29;20560;-83
2024/01/21 00:35:11;;;;;;;12.13;7.43;;;;;;;;;;4853194;29;20630;-83
2024/01/21 00:38:15;;;;;;;9.17;6.13;;;;;;;;;;4864274;29;20596;-83
2024/01/21 00:41:20;;;;;;;9.37;6.30;;;;;;;;;;4874189;29;20560;-83
2024/01/21 00:44:24;;;;;;;9.47;6.23;;;;;;;;;;4874111;29;20544;-83
2024/01/21 00:47:28;;;;;;;10.27;6.67;;;;;;;;;;4873824;29;21105;-84
2024/01/21 00:50:32;;;;;;;9.70;6.30;;;;;;;;;;4852873;29;20549;-83
2024/01/21 00:53:36;;;;;;;8.80;6.43;;;;;;;;;;4864078;29;20544;-83
2024/01/21 00:56:40;;;;;;;9.07;6.50;;;;;;;;;;4873799;29;20659;-85
2024/01/21 00:59:45;;;;;;;10.37;6.47;;;;;;;;;;4866673;29;20543;-83
2024/01/21 01:02:49;;;;;;;8.53;5.90;;;;;;;;;;4865867;29;20560;-84
2024/01/21 01:05:53;;;;;;;8.53;5.63;;;;;;;;;;4855804;29;20631;-84
2024/01/21 01:08:57;;;;;;;11.40;6.43;;;;;;;;;;4867449;29;20541;-84
2024/01/21 01:12:01;;;;;;;10.97;6.43;;;;;;;;;;4867497;29;20555;-84
2024/01/21 01:15:08;;;;;;;7.47;5.40;;;;;;;;;;4867630;29;20627;-84
2024/01/21 01:18:15;;;;;;;9.33;5.53;;;;;;;;;;4867492;29;20600;-83
2024/01/21 01:21:20;;;;;;;10.77;6.20;;;;;;;;;;4876913;29;20548;-85
2024/01/21 01:24:25;;;;;;;10.70;5.83;;;;;;;;;;4876873;29;20544;-85
2024/01/21 01:27:29;;;;;;;9.50;6.23;;;;;;;;;;4866903;29;20544;-84
2024/01/21 01:30:33;;;;;;;8.67;5.93;;;;;;;;;;4876719;29;20560;-83
2024/01/21 01:33:38;;;;;;;9.23;5.93;;;;;;;;;;4864816;29;20544;-84
2024/01/21 01:36:42;;;;;;;7.70;5.43;;;;;;;;;;4867389;29;20670;-83
2024/01/21 01:39:47;;;;;;;9.97;5.73;;;;;;;;;;4876130;29;20559;-83
2024/01/21 01:42:57;;;;;;;8.30;5.80;;;;;;;;;;4865521;29;20892;-83
2024/01/21 01:46:03;;;;;;;9.53;5.93;;;;;;;;;;4865661;29;20623;-83
2024/01/21 01:49:07;;;;;;;8.77;5.80;;;;;;;;;;4866129;29;20544;-84
2024/01/21 01:52:13;;;;;;;10.47;5.50;;;;;;;;;;4875619;29;21093;-84
2024/01/21 01:55:18;;;;;;;7.37;5.17;;;;;;;;;;4865928;29;20627;-83
2024/01/21 01:58:24;;;;;;;10.17;5.40;;;;;;;;;;4875262;29;20600;-83
2024/01/21 02:01:29;;;;;;;8.93;5.63;;;;;;;;;;4866085;29;20602;-83
2024/01/21 02:04:33;;;;;;;7.03;4.80;;;;;;;;;;4864537;29;20567;-83
2024/01/21 02:07:38;;;;;;;8.97;5.27;;;;;;;;;;4864805;29;20556;-83
2024/01/21 02:10:42;;;;;;;8.00;4.80;;;;;;;;;;4874999;29;21097;-85
2024/01/21 02:13:46;;;;;;;6.40;4.77;;;;;;;;;;4854701;29;20553;-83
2024/01/21 02:16:50;;;;;;;8.03;4.90;;;;;;;;;;4875411;29;20660;-84
2024/01/21 02:19:54;;;;;;;8.30;4.97;;;;;;;;;;4854505;29;20548;-84
2024/01/21 02:23:00;;;;;;;9.50;5.20;;;;;;;;;;4865052;29;20544;-83
2024/01/21 02:26:04;;;;;;;8.67;4.67;;;;;;;;;;4875360;29;20631;-83
2024/01/21 02:29:08;;;;;;;9.00;4.63;;;;;;;;;;4864845;29;20552;-83
2024/01/21 02:32:12;;;;;;;7.43;4.70;;;;;;;;;;4853403;29;20560;-83
2024/01/21 02:35:16;;;;;;;7.20;4.83;;;;;;;;;;4864004;29;20974;-84
2024/01/21 02:38:20;;;;;;;6.63;4.67;;;;;;;;;;4864416;29;20592;-85
2024/01/21 02:41:24;;;;;;;6.27;4.70;;;;;;;;;;4875395;29;20548;-83
2024/01/21 02:44:28;;;;;;;8.93;5.10;;;;;;;;;;4865340;29;20540;-84
2024/01/21 02:47:33;;;;;;;8.40;5.27;;;;;;;;;;4865156;29;20895;-84
2024/01/21 02:50:37;;;;;;;8.60;5.20;;;;;;;;;;4875633;29;20547;-83
2024/01/21 02:53:41;;;;;;;8.27;5.77;;;;;;;;;;4874722;29;20548;-84
2024/01/21 02:56:45;;;;;;;8.30;5.80;;;;;;;;;;4874959;29;20974;-84
2024/01/21 02:59:50;;;;;;;9.73;5.90;;;;;;;;;;4853128;29;20552;-84
2024/01/21 03:02:55;;;;;;;10.43;5.47;;;;;;;;;;4864627;29;20540;-83
2024/01/21 03:05:59;;;;;;;8.23;5.50;;;;;;;;;;4864254;29;20635;-84
2024/01/21 03:09:03;;;;;;;11.10;5.70;;;;;;;;;;4874477;29;20563;-83
2024/01/21 03:12:07;;;;;;;6.87;4.83;;;;;;;;;;4874371;29;20544;-85
2024/01/21 03:15:11;;;;;;;7.10;4.80;;;;;;;;;;4863921;29;20619;-83
2024/01/21 03:18:16;;;;;;;7.03;4.50;;;;;;;;;;4874723;29;20599;-83
2024/01/21 03:21:20;;;;;;;8.10;4.80;;;;;;;;;;4864319;29;20548;-83
2024/01/21 03:24:24;;;;;;;6.47;4.57;;;;;;;;;;4853219;29;21128;-83
2024/01/21 03:27:28;;;;;;;8.20;5.17;;;;;;;;;;4853136;29;20544;-83
2024/01/21 03:30:32;;;;;;;6.83;4.50;;;;;;;;;;4864092;29;20560;-83
2024/01/21 03:33:37;;;;;;;7.90;4.63;;;;;;;;;;4863613;29;20548;-84
2024/01/21 03:36:42;;;;;;;9.13;4.60;;;;;;;;;;4862257;29;20666;-83
2024/01/21 03:39:46;;;;;;;8.00;4.77;;;;;;;;;;4852394;29;20529;-84
2024/01/21 03:42:50;;;;;;;7.03;4.68;;;;;;;;;;4863545;29;20556;-83
2024/01/21 03:45:54;;;;;;;6.07;4.60;;;;;;;;;;4863379;29;20222;-83
2024/01/21 03:48:58;;;;;;;6.05;4.70;;;;;;;;;;4863155;29;20548;-84
2024/01/21 03:52:03;;;;;;;6.03;4.40;;;;;;;;;;4862992;29;20538;-84
2024/01/21 03:55:07;;;;;;;6.20;3.92;;;;;;;;;;4852501;29;20223;-84
2024/01/21 03:58:11;;;;;;;6.50;4.45;;;;;;;;;;4862734;29;20215;-83
2024/01/21 04:01:15;;;;;;;5.78;4.07;;;;;;;;;;4863506;29;20187;-84
2024/01/21 04:04:19;;;;;;;4.97;3.73;;;;;;;;;;4873554;29;20640;-83
2024/01/21 04:07:24;;;;;;;7.17;4.63;;;;;;;;;;4863635;29;20891;-84
2024/01/21 04:10:29;;;;;;;6.50;4.13;;;;;;;;;;4862899;29;20568;-84
2024/01/21 04:13:33;;;;;;;6.13;4.18;;;;;;;;;;4862848;29;20534;-83
2024/01/21 04:16:39;;;;;;;6.57;4.18;;;;;;;;;;4863520;29;20704;-83
2024/01/21 04:19:43;;;;;;;6.72;4.30;;;;;;;;;;4873291;29;20179;-83
2024/01/21 04:22:47;;;;;;;7.03;4.00;;;;;;;;;;4851866;29;20183;-83
2024/01/21 04:25:52;;;;;;;6.25;3.92;;;;;;;;;;4863231;29;20222;-84
2024/01/21 04:28:57;;;;;;;5.55;3.50;;;;;;;;;;4851783;29;20190;-83
2024/01/21 04:32:01;;;;;;;8.30;4.18;;;;;;;;;;4872995;29;20641;-84
2024/01/21 04:35:07;;;;;;;5.85;4.00;;;;;;;;;;4866006;29;20230;-85
2024/01/21 04:38:11;;;;;;;7.55;3.55;;;;;;;;;;4876698;29;20215;-84
2024/01/21 04:41:16;;;;;;;5.95;3.80;;;;;;;;;;4867022;29;20187;-83
2024/01/21 04:44:20;;;;;;;5.35;3.72;;;;;;;;;;4876690;29;20187;-84
2024/01/21 04:47:24;;;;;;;6.97;3.83;;;;;;;;;;4865678;29;20190;-83
2024/01/21 04:50:28;;;;;;;7.70;4.00;;;;;;;;;;4855790;29;20187;-84
2024/01/21 04:53:33;;;;;;;5.95;3.55;;;;;;;;;;4866613;29;20191;-83
2024/01/21 04:56:36;;;;;;;8.18;3.80;;;;;;;;;;4876256;29;20222;-83
2024/01/21 04:59:40;;;;;;;6.70;4.13;;;;;;;;;;4876090;29;20669;-84
2024/01/21 05:02:45;;;;;;;5.95;3.75;;;;;;;;;;4876769;29;20191;-84
2024/01/21 05:05:49;;;;;;;5.03;3.63;;;;;;;;;;4866382;29;20221;-84
2024/01/21 05:08:54;;;;;;;5.85;3.65;;;;;;;;;;4866226;29;20183;-83
2024/01/21 05:11:58;;;;;;;5.10;3.95;;;;;;;;;;4876233;29;20195;-84
2024/01/21 05:15:03;;;;;;;5.65;3.53;;;;;;;;;;4865535;29;20226;-84
2024/01/21 05:18:07;;;;;;;7.38;3.85;;;;;;;;;;4854365;29;20210;-84
2024/01/21 05:21:11;;;;;;;5.90;3.97;;;;;;;;;;4854649;29;20187;-84
2024/01/21 05:24:16;;;;;;;6.40;4.25;;;;;;;;;;4855362;29;20183;-84
2024/01/21 05:27:21;;;;;;;6.57;4.03;;;;;;;;;;4865341;29;20186;-83
2024/01/21 05:30:26;;;;;;;5.80;3.88;;;;;;;;;;4865819;29;20184;-84
2024/01/21 05:33:30;;;;;;;5.03;3.58;;;;;;;;;;4876607;29;20533;-84
2024/01/21 05:36:35;;;;;;;5.63;3.53;;;;;;;;;;4854465;29;20230;-84
2024/01/21 05:39:39;;;;;;;7.63;3.72;;;;;;;;;;4854412;29;20219;-83
2024/01/21 05:42:43;;;;;;;5.28;3.90;;;;;;;;;;4876605;29;20183;-84
2024/01/21 05:45:47;;;;;;;9.32;4.55;;;;;;;;;;4874908;29;20218;-84
2024/01/21 05:48:51;;;;;;;5.47;4.03;;;;;;;;;;4864593;29;20183;-83
2024/01/21 05:51:55;;;;;;;7.25;3.83;;;;;;;;;;4853785;29;20191;-83
2024/01/21 05:54:59;;;;;;;9.75;4.57;;;;;;;;;;4875443;29;20183;-83
2024/01/21 05:58:03;;;;;;;6.15;3.95;;;;;;;;;;4875341;29;20222;-84
2024/01/21 06:01:09;;;;;;;6.88;3.88;;;;;;;;;;4854165;29;20187;-84
2024/01/21 06:04:13;;;;;;;5.38;3.53;;;;;;;;;;4865066;29;20187;-84
2024/01/21 06:07:18;;;;;;;6.38;3.92;;;;;;;;;;4875435;29;20190;-83
2024/01/21 06:10:22;;;;;;;7.38;4.00;;;;;;;;;;4853894;29;20637;-84
2024/01/21 06:13:26;;;;;;;5.20;3.53;;;;;;;;;;4875043;29;20191;-83
2024/01/21 06:16:30;;;;;;;7.20;3.88;;;;;;;;;;4874956;29;20218;-84
2024/01/21 06:19:34;;;;;;;6.22;4.15;;;;;;;;;;4865388;29;20215;-84
2024/01/21 06:22:38;;;;;;;6.07;4.13;;;;;;;;;;4875398;29;20191;-83
2024/01/21 06:25:42;;;;;;;6.00;4.00;;;;;;;;;;4865233;29;20227;-84
2024/01/21 06:28:46;;;;;;;7.65;4.28;;;;;;;;;;4865089;29;20534;-83
2024/01/21 06:31:50;;;;;;;5.80;3.92;;;;;;;;;;4863933;29;20194;-83
2024/01/21 06:34:54;;;;;;;6.15;4.15;;;;;;;;;;4864395;29;20191;-84
2024/01/21 06:37:58;;;;;;;7.47;4.20;;;;;;;;;;4875287;29;20191;-84
2024/01/21 06:41:03;;;;;;;7.35;4.25;;;;;;;;;;4853566;29;20191;-84
2024/01/21 06:44:07;;;;;;;6.57;4.65;;;;;;;;;;4874745;29;20186;-84
2024/01/21 06:47:11;;;;;;;7.03;5.00;;;;;;;;;;4874514;29;20191;-83
2024/01/21 06:50:15;;;;;;;6.05;4.20;;;;;;;;;;4874602;29;20178;-84
2024/01/21 06:53:20;;;;;;;9.10;4.60;;;;;;;;;;4864013;29;20191;-83
2024/01/21 06:56:24;;;;;;;5.95;4.40;;;;;;;;;;4852802;29;20226;-84
2024/01/21 06:59:28;;;;;;;5.45;4.07;;;;;;;;;;4853031;29;20218;-85
2024/01/21 07:02:32;;;;;;;10.55;4.47;;;;;;;;;;4852541;29;20538;-84
2024/01/21 07:05:36;;;;;;;5.90;4.10;;;;;;;;;;4865104;29;20565;-86
2024/01/21 07:08:41;;;;;;;7.25;4.53;;;;;;;;;;4863990;29;20191;-85
2024/01/21 07:11:46;;;;;;;7.32;4.32;;;;;;;;;;4863678;29;20183;-82
2024/01/21 07:14:51;;;;;;;8.50;5.28;;;;;;;;;;4873907;29;20183;-82
2024/01/21 07:17:56;;;;;;;9.88;5.60;;;;;;;;;;4873958;29;20183;-84
2024/01/21 07:20:59;;;;;;;8.52;5.43;;;;;;;;;;4864486;29;20190;-83
2024/01/21 07:24:04;;;;;;;11.23;5.47;;;;;;;;;;4863890;29;20178;-83
2024/01/21 07:27:09;;;;;;;7.88;5.57;;;;;;;;;;4874121;29;20194;-83
2024/01/21 07:30:14;;;;;;;10.50;4.10;;;;;;;;;;4853172;29;20187;-81
2024/01/21 07:33:19;;;;;;;8.48;5.43;;;;;;;;;;4864604;29;20634;-85
2024/01/21 07:36:23;;;;;;;8.03;5.73;;;;;;;;;;4851670;29;20234;-86
2024/01/21 07:39:27;;;;;;;7.10;4.70;;;;;;;;;;4863477;29;20591;-84
2024/01/21 07:42:31;;;;;;;9.30;4.87;;;;;;;;;;4873970;29;20544;-85
2024/01/21 07:45:36;;;;;;;8.43;5.30;;;;;;;;;;4873498;29;20967;-84
2024/01/21 07:48:40;;;;;;;9.03;6.07;;;;;;;;;;4863986;29;20540;-85
2024/01/21 07:51:46;;;;;;;15.53;7.83;;;;;;;;;;4862706;29;20548;-85
2024/01/21 07:54:50;;;;;;;13.50;6.00;;;;;;;;;;4872962;29;20540;-87
2024/01/21 07:57:54;;;;;;;11.33;6.73;;;;;;;;;;4872796;29;20540;-88
2024/01/21 08:00:58;;;;;;;10.27;6.67;;;;;;;;;;4863725;29;20536;-86
2024/01/21 08:04:03;;;;;;;11.37;6.70;;;;;;;;;;4852104;29;20560;-86
2024/01/21 08:07:08;;;;;;;9.27;6.40;;;;;;;;;;4873492;29;20620;-88
2024/01/21 08:10:12;;;;;;;8.63;6.63;;;;;;;;;;4873509;29;20549;-87
2024/01/21 08:13:17;;;;;;;10.20;5.70;;;;;;;;;;4873330;29;20555;-85
2024/01/21 08:16:21;;;;;;;16.43;9.87;;;;;;;;;;4872619;29;20640;-86
2024/01/21 08:19:25;;;;;;;54.00;29.27;;;;;;;;;;4862677;29;20600;-86
2024/01/21 08:22:29;;;;;;;39.73;21.33;;;;;;;;;;4852352;29;20555;-87
2024/01/21 08:25:33;;;;;;;30.63;18.17;;;;;;;;;;4851975;29;20629;-87
2024/01/21 08:28:38;;;;;;;27.67;16.97;;;;;;;;;;4863281;29;21112;-86
2024/01/21 08:31:46;;;;;;;22.50;14.07;;;;;;;;;;4873617;29;21099;-85
2024/01/21 08:34:50;;;;;;;23.90;12.90;;;;;;;;;;4873137;29;20555;-86
2024/01/21 08:37:54;;;;;;;23.27;13.73;;;;;;;;;;4863152;29;20555;-86
2024/01/21 08:40:58;;;;;;;19.63;12.37;;;;;;;;;;4852585;29;20544;-85
2024/01/21 08:44:02;;;;;;;16.40;11.10;;;;;;;;;;4862632;29;20559;-87
2024/01/21 08:47:06;;;;;;;10.73;7.40;;;;;;;;;;4851389;29;20635;-85
2024/01/21 08:50:15;;;;;;;13.93;7.23;;;;;;;;;;4873545;29;20544;-89
2024/01/21 08:54:07;;;;;;;11.80;6.93;;;;;;;;;;4861968;29;20899;-86
2024/01/21 08:57:12;;;;;;;11.43;6.27;;;;;;;;;;4873693;29;20552;-79
2024/01/21 09:00:17;;;;;;;11.67;6.77;;;;;;;;;;4874840;29;20620;-82
2024/01/21 09:03:21;;;;;;;10.90;6.70;;;;;;;;;;4875876;29;20915;-85
2024/01/21 09:06:25;;;;;;;8.73;6.20;;;;;;;;;;4852215;29;20990;-83
2024/01/21 09:09:31;;;;;;;11.80;6.63;;;;;;;;;;4852621;29;20552;-86
2024/01/21 09:13:51;;;;;;;9.50;6.33;;;;;;;;;;4842655;29;20609;-85
2024/01/21 09:16:56;;;;;;;7.87;5.90;;;;;;;;;;4840365;29;20655;-82
2024/01/21 09:20:00;;;;;;;12.57;7.43;;;;;;;;;;4875820;29;21157;-83
2024/01/21 09:23:05;;;;;;;7.60;5.97;;;;;;;;;;4876880;29;20552;-82
2024/01/21 09:26:09;;;;;;;9.60;6.53;;;;;;;;;;4856859;29;20631;-83
2024/01/21 09:29:14;;;;;;;9.03;6.13;;;;;;;;;;4857438;29;20564;-85
2024/01/21 09:32:20;;;;;;;8.17;6.37;;;;;;;;;;4858569;29;20555;-87
2024/01/21 09:35:23;;;;;;;8.10;5.20;;;;;;;;;;4855512;29;20659;-85
2024/01/21 09:38:28;;;;;;;7.13;5.33;;;;;;;;;;4879569;29;20556;-85
2024/01/21 09:41:44;;;;;;;7.53;5.10;;;;;;;;;;4883012;29;20564;-85
2024/01/21 09:44:49;;;;;;;7.00;5.27;;;;;;;;;;4861952;29;20540;-85
2024/01/21 09:47:54;;;;;;;12.97;5.10;;;;;;;;;;4851553;29;20548;-85
2024/01/21 09:51:02;;;;;;;7.40;4.67;;;;;;;;;;4863447;29;20544;-85
2024/01/21 09:54:07;;;;;;;8.77;5.63;;;;;;;;;;4863934;29;20560;-85
2024/01/21 09:57:12;;;;;;;8.57;5.20;;;;;;;;;;4862750;29;20552;-86
2024/01/21 10:00:17;;;;;;;6.83;4.57;;;;;;;;;;4873196;29;20616;-85
2024/01/21 10:03:22;;;;;;;10.83;4.47;;;;;;;;;;4861692;29;20549;-85
2024/01/21 10:06:26;;;;;;;5.50;4.47;;;;;;;;;;4872585;29;20627;-86
2024/01/21 10:09:31;;;;;;;7.73;4.63;;;;;;;;;;4861496;29;20556;-85
2024/01/21 10:12:35;;;;;;;6.27;4.60;;;;;;;;;;4872075;29;20567;-84
2024/01/21 10:15:41;;;;;;;7.17;4.83;;;;;;;;;;4861203;29;20634;-86
2024/01/21 10:18:47;;;;;;;7.83;4.37;;;;;;;;;;4871714;29;20552;-85
2024/01/21 10:22:06;;;;;;;6.07;4.07;;;;;;;;;;4850932;29;20545;-86
2024/01/21 10:25:14;;;;;;;5.80;4.10;;;;;;;;;;4871538;29;20627;-85
2024/01/21 10:28:18;;;;;;;4.43;3.93;;;;;;;;;;4871103;29;20549;-85
2024/01/21 10:31:22;;;;;;;5.70;3.63;;;;;;;;;;4859624;29;20183;-86
2024/01/21 10:34:27;;;;;;;7.20;4.77;;;;;;;;;;4881672;29;20186;-85
2024/01/21 10:37:39;;;;;;;11.27;8.67;;;;;;;;;;4871080;29;20183;-85
2024/01/21 10:40:44;;;;;;;8.33;5.83;;;;;;;;;;4870629;29;20215;-85
2024/01/21 10:43:50;;;;;;;6.27;4.63;;;;;;;;;;4870863;29;20183;-86
2024/01/21 10:47:12;;;;;;;7.53;5.47;;;;;;;;;;5120271;27;21408;-85
2024/01/21 10:50:20;;;;;;;13.63;10.77;;;;;;;;;;5108398;28;20178;-86
2024/01/21 10:53:25;;;;;;;7.57;4.73;;;;;;;;;;5107929;28;20179;-86
2024/01/21 10:56:30;;;;;;;6.13;5.03;;;;;;;;;;5118913;28;20217;-86
2024/01/21 10:59:38;;;;;;;6.67;4.57;;;;;;;;;;5107622;28;20186;-86
2024/01/21 11:03:22;;;;;;;5.23;3.77;;;;;;;;;;5119374;28;20178;-86
2024/01/21 11:06:57;;;;;;;6.53;4.27;;;;;;;;;;4993466;27;55518;-87
2024/01/21 11:10:10;;;;;;;19.37;10.53;;;;;;;;;;4984572;28;20611;-86
2024/01/21 11:13:45;;;;;;;53.17;29.97;;;;;;;;;;5058402;28;20180;-86
2024/01/21 11:16:54;;;;;;;14.13;12.63;;;;;;;;;;5034825;28;20558;-87
2024/01/21 11:19:58;;;;;;;5.63;4.83;;;;;;;;;;5057591;28;20184;-88
2024/01/21 11:23:14;;;;;;;5.90;4.80;;;;;;;;;;5034975;28;20184;-88
2024/01/21 11:26:21;;;;;;;9.50;6.90;;;;;;;;;;5035322;28;20228;-88
2024/01/21 11:29:26;;;;;;;3.50;3.20;;;;;;;;;;5058135;28;20181;-86
2024/01/21 11:32:31;;;;;;;9.40;6.60;;;;;;;;;;5046288;28;20181;-88
2024/01/21 11:35:37;;;;;;;11.10;9.40;;;;;;;;;;5045685;28;20215;-88
2024/01/21 11:38:55;;;;;;;6.20;3.77;;;;;;;;;;5046285;28;20188;-88
2024/01/21 11:42:59;;;;;;;5.20;3.80;;;;;;;;;;5066453;28;20638;-88
2024/01/21 11:47:46;;;;;;;4.43;3.47;;;;;;;;;;5056240;28;20232;-88
2024/01/21 11:50:51;;;;;;;3.97;2.90;;;;;;;;;;5033048;28;20180;-88
2024/01/21 11:53:55;;;;;;;4.80;3.40;;;;;;;;;;5032638;28;20181;-88
2024/01/21 11:57:00;;;;;;;3.53;2.90;;;;;;;;;;5027150;28;20224;-87
2024/01/21 12:00:05;;;;;;;4.43;3.33;;;;;;;;;;5019540;28;20565;-87
2024/01/21 12:03:16;;;;;;;4.57;3.20;;;;;;;;;;5042753;28;20177;-88
2024/01/21 12:06:21;;;;;;;4.17;3.17;;;;;;;;;;5019856;28;20228;-88
2024/01/21 12:09:26;;;;;;;4.13;3.10;;;;;;;;;;5019678;28;20184;-88
2024/01/21 12:12:32;;;;;;;4.57;3.03;;;;;;;;;;5020256;28;20189;-88
2024/01/21 12:15:36;;;;;;;4.67;3.20;;;;;;;;;;5019698;28;20216;-88
2024/01/21 12:18:42;;;;;;;4.23;2.77;;;;;;;;;;5019853;28;20189;-88
2024/01/21 12:21:47;;;;;;;4.27;3.00;;;;;;;;;;5019636;28;20180;-88
2024/01/21 12:24:54;;;;;;;3.33;2.67;;;;;;;;;;5019222;28;20181;-88
2024/01/21 12:27:59;;;;;;;3.90;3.20;;;;;;;;;;5029762;28;20173;-88
2024/01/21 12:31:04;;;;;;;3.80;2.80;;;;;;;;;;5042435;28;20193;-88
2024/01/21 12:34:39;;;;;;;4.40;2.93;;;;;;;;;;5018652;28;20538;-87
2024/01/21 12:37:44;;;;;;;6.37;4.23;;;;;;;;;;5042185;28;20176;-88
2024/01/21 12:40:49;;;;;;;7.13;3.33;;;;;;;;;;5041429;28;20176;-83
2024/01/21 22:05:08;;;;;;;13.77;7.53;;;;;;;;;;5046512;23;20679;-86
2024/01/21 22:08:13;;;;;;;14.13;9.40;;;;;;;;;;4998374;28;20679;-86
2024/01/21 22:11:23;;;;;;;9.30;6.30;;;;;;;;;;5024319;28;20561;-87
2024/01/21 22:14:28;;;;;;;10.27;6.57;;;;;;;;;;5000438;28;21069;-86
2024/01/21 22:17:32;;;;;;;9.93;5.90;;;;;;;;;;4964711;28;21062;-86
2024/01/21 22:20:37;;;;;;;7.87;5.53;;;;;;;;;;4974676;28;20912;-87
2024/01/21 22:23:42;;;;;;;9.90;5.63;;;;;;;;;;4964014;28;21083;-86
2024/01/21 22:26:46;;;;;;;9.20;5.97;;;;;;;;;;4974659;28;20616;-86
2024/01/21 22:29:51;;;;;;;10.73;6.60;;;;;;;;;;4975060;28;20534;-87
2024/01/21 22:32:55;;;;;;;11.43;7.27;;;;;;;;;;4974776;28;20533;-86
2024/01/21 22:35:59;;;;;;;11.23;8.03;;;;;;;;;;4963622;28;20613;-87
2024/01/21 22:39:03;;;;;;;14.03;7.63;;;;;;;;;;4997192;28;20542;-86
2024/01/21 22:42:08;;;;;;;10.43;6.90;;;;;;;;;;4974706;28;20546;-86
2024/01/21 22:45:38;;;;;;;10.47;7.03;;;;;;;;;;4985772;28;20617;-87
2024/01/21 22:48:46;;;;;;;13.53;8.13;;;;;;;;;;4974419;28;20984;-86
2024/01/21 22:51:50;;;;;;;13.83;8.13;;;;;;;;;;4974731;28;20542;-86
2024/01/21 22:54:55;;;;;;;14.97;8.17;;;;;;;;;;4985018;28;21314;-87
2024/01/21 22:58:01;;;;;;;13.87;7.53;;;;;;;;;;4974678;28;20550;-86
2024/01/21 23:01:05;;;;;;;14.23;8.23;;;;;;;;;;4997688;28;20558;-86
2024/01/21 23:04:13;;;;;;;15.13;8.10;;;;;;;;;;4975315;28;20550;-86
2024/01/21 23:07:18;;;;;;;14.77;7.53;;;;;;;;;;4974901;28;21161;-86
2024/01/21 23:10:23;;;;;;;13.10;7.30;;;;;;;;;;4964699;28;20526;-86
2024/01/21 23:13:27;;;;;;;11.57;7.33;;;;;;;;;;4974789;28;20546;-86
2024/01/21 23:16:32;;;;;;;13.00;7.13;;;;;;;;;;4974712;28;20629;-86
2024/01/21 23:19:36;;;;;;;11.77;6.93;;;;;;;;;;4963706;28;20533;-86
2024/01/21 23:22:40;;;;;;;11.77;6.47;;;;;;;;;;4985888;28;20546;-86
2024/01/21 23:25:46;;;;;;;10.83;6.73;;;;;;;;;;4963586;28;21180;-87
2024/01/21 23:28:52;;;;;;;9.73;5.73;;;;;;;;;;4974364;28;20669;-87
2024/01/21 23:31:56;;;;;;;7.47;5.07;;;;;;;;;;4996859;28;20550;-85
2024/01/21 23:35:00;;;;;;;9.13;5.67;;;;;;;;;;4963058;28;20550;-85
2024/01/21 23:38:04;;;;;;;7.43;4.80;;;;;;;;;;4973694;28;20538;-86
2024/01/21 23:41:08;;;;;;;8.83;4.97;;;;;;;;;;4962789;28;20550;-86
2024/01/21 23:44:14;;;;;;;8.03;4.77;;;;;;;;;;4985021;28;20550;-85
2024/01/21 23:47:18;;;;;;;8.67;4.47;;;;;;;;;;4974545;28;20542;-85
2024/01/21 23:50:22;;;;;;;8.83;4.93;;;;;;;;;;4985467;28;21067;-85
2024/01/21 23:53:26;;;;;;;6.47;4.43;;;;;;;;;;4986571;28;20561;-86
2024/01/21 23:56:31;;;;;;;7.97;4.63;;;;;;;;;;4966115;28;20620;-86
2024/01/21 23:59:38;;;;;;;7.17;4.63;;;;;;;;;;4966483;28;20542;-86
